Time;durP1;ratioP1;P1;durP2;ratioP2;P2;SDS_P1;SDS_P2;PMS_P1;PMS_P2;Temp;Humidity;BMP_temperature;BMP_pressure;BME280_temperature;BME280_humidity;BME280_pressure;Samples;Min_cycle;Max_cycle;Signal;HPM_P1;HPM_P2
2021/06/07 05:52:18;;;;;;;680.78;638.78;;;16.30;99.90;;;;;;5147610;27;20544;-72
2021/06/07 05:54:43;;;;;;;741.80;695.58;;;16.80;99.90;;;;;;5130441;28;20239;-71
2021/06/07 05:57:10;;;;;;;798.63;747.53;;;16.70;99.90;;;;;;5131649;28;20522;-71
2021/06/07 05:59:36;;;;;;;811.70;759.78;;;17.10;99.90;;;;;;5131665;28;20177;-72
2021/06/07 06:02:06;;;;;;;860.17;803.90;;;16.80;99.90;;;;;;5131402;27;20163;-72
2021/06/07 06:04:33;;;;;;;886.67;827.85;;;17.00;99.90;;;;;;5131598;28;20658;-71
2021/06/07 06:07:00;;;;;;;922.47;860.47;;;17.10;99.90;;;;;;5131460;27;20679;-71
2021/06/07 06:09:25;;;;;;;903.10;842.67;;;16.90;99.90;;;;;;5131360;27;20159;-72
2021/06/07 06:11:51;;;;;;;901.65;841.58;;;16.40;99.90;;;;;;5131314;27;20697;-70
2021/06/07 06:14:17;;;;;;;928.35;865.08;;;;;;;;;;5131363;28;20173;-72
2021/06/07 06:16:44;;;;;;;916.05;854.67;;;;;;;;;;5131342;27;20159;-72
2021/06/07 06:19:11;;;;;;;917.75;856.00;;;16.10;99.90;;;;;;5131389;27;20173;-72
2021/06/07 06:21:39;;;;;;;899.13;839.67;;;16.60;99.90;;;;;;5131040;27;20529;-72
2021/06/07 06:24:09;;;;;;;914.83;853.35;;;16.10;99.90;;;;;;5131073;27;20196;-73
2021/06/07 06:26:34;;;;;;;934.88;871.45;;;15.40;99.90;;;;;;5130946;27;20174;-73
2021/06/07 06:29:02;;;;;;;933.90;870.47;;;;;;;;;;5129543;28;20581;-73
2021/06/07 06:31:28;;;;;;;943.13;878.38;;;16.20;99.90;;;;;;5130776;27;20202;-72
2021/06/07 06:33:54;;;;;;;946.40;881.17;;;;;;;;;;5130998;28;20198;-74
2021/06/07 06:36:20;;;;;;;953.35;887.42;;;16.30;99.90;;;;;;5130733;27;20212;-74
2021/06/07 06:38:46;;;;;;;951.88;885.80;;;16.30;99.90;;;;;;5130871;28;20166;-73
2021/06/07 06:41:12;;;;;;;971.10;902.67;;;16.60;99.90;;;;;;5130725;28;20670;-71
2021/06/07 06:43:38;;;;;;;981.95;911.35;;;16.50;99.90;;;;;;5130332;28;20647;-71
2021/06/07 06:46:04;;;;;;;1002.83;929.65;;;16.80;99.90;;;;;;5129760;28;20562;-71
2021/06/07 06:48:33;;;;;;;1000.08;926.90;;;16.50;99.90;;;;;;5129264;28;20619;-71
2021/06/07 06:50:59;;;;;;;1018.90;942.78;;;17.20;99.90;;;;;;5130388;27;20225;-71
2021/06/07 06:53:25;;;;;;;1004.75;930.95;;;;;;;;;;5129203;27;20527;-67
2021/06/07 06:55:51;;;;;;;1013.70;939.47;;;16.40;99.90;;;;;;5130506;27;20188;-67
2021/06/07 06:58:19;;;;;;;1015.20;940.42;;;;;;;;;;5130347;28;20162;-67
2021/06/07 07:00:45;;;;;;;1029.18;951.67;;;16.60;99.90;;;;;;5130314;27;20202;-72
2021/06/07 07:03:13;;;;;;;1049.38;968.28;;;;;;;;;;5118110;28;20640;-72
2021/06/07 07:05:39;;;;;;;1077.85;990.85;;;;;;;;;;5116196;28;20555;-78
2021/06/07 07:08:06;;;;;;;1104.32;998.75;;;17.00;99.90;;;;;;5116652;27;20220;-72
2021/06/07 07:10:32;;;;;;;1132.18;999.90;;;17.50;99.90;;;;;;5116213;28;20194;-72
2021/06/07 07:12:58;;;;;;;1145.20;999.90;;;17.50;99.90;;;;;;5116468;28;20191;-72
2021/06/07 07:15:25;;;;;;;1180.25;999.90;;;;;;;;;;5116338;28;20195;-71
2021/06/07 07:17:50;;;;;;;1179.88;999.90;;;17.30;99.90;;;;;;5116535;28;20164;-72
2021/06/07 07:20:16;;;;;;;1193.65;999.90;;;17.80;99.90;;;;;;5116221;28;20228;-72
2021/06/07 07:22:43;;;;;;;1185.95;999.90;;;;;;;;;;5116223;28;20167;-72
2021/06/07 07:25:10;;;;;;;1205.97;999.90;;;17.40;99.90;;;;;;5116283;28;20215;-72
2021/06/07 07:27:37;;;;;;;1215.13;999.90;;;17.70;99.90;;;;;;5116179;28;20163;-77
2021/06/07 07:30:11;;;;;;;1207.28;999.90;;;17.80;99.90;;;;;;5116082;28;20166;-72
2021/06/07 07:32:42;;;;;;;1226.97;999.90;;;17.60;99.90;;;;;;5116006;28;20158;-71
2021/06/07 07:35:08;;;;;;;1227.38;999.90;;;17.80;99.90;;;;;;5114681;28;20561;-73
2021/06/07 07:37:36;;;;;;;1204.32;999.90;;;17.90;99.90;;;;;;5114852;28;20663;-71
2021/06/07 07:40:05;;;;;;;1203.85;999.90;;;18.00;99.90;;;;;;5115749;28;20179;-73
2021/06/07 07:42:31;;;;;;;1219.20;999.90;;;;;;;;;;5115997;28;20162;-72
2021/06/07 07:44:59;;;;;;;1241.13;999.90;;;;;;;;;;5116001;28;20216;-75
2021/06/07 07:47:26;;;;;;;1254.97;999.90;;;;;;;;;;5115857;28;20241;-77
2021/06/07 07:49:52;;;;;;;1256.80;999.90;;;;;;;;;;5115843;28;20620;-74
2021/06/07 07:52:23;;;;;;;1257.15;999.90;;;;;;;;;;5115560;28;20610;-74
2021/06/07 07:54:51;;;;;;;1268.95;999.90;;;;;;;;;;5115806;28;20159;-75
2021/06/07 07:57:19;;;;;;;1263.07;999.90;;;18.20;99.90;;;;;;5115362;28;20273;-72
2021/06/07 07:59:47;;;;;;;1261.22;999.90;;;18.30;99.90;;;;;;5113970;28;20546;-72
2021/06/07 08:02:13;;;;;;;1294.28;999.90;;;18.40;99.90;;;;;;5115326;28;20231;-75
2021/06/07 16:03:51;;;;;;;571.38;538.63;;;18.70;99.90;;;;;;5147757;27;20517;-69
2021/06/07 16:06:18;;;;;;;710.42;665.33;;;18.70;99.90;;;;;;5131694;28;20168;-69
2021/06/07 16:08:44;;;;;;;768.13;718.17;;;18.70;99.90;;;;;;5131722;27;20193;-69
2021/06/07 16:11:10;;;;;;;813.45;759.08;;;18.80;99.90;;;;;;5131534;27;20189;-69
2021/06/07 16:13:37;;;;;;;819.63;764.42;;;18.70;99.90;;;;;;5131584;28;20165;-69
2021/06/07 16:16:07;;;;;;;855.78;797.50;;;18.70;99.90;;;;;;5131505;27;20583;-69
2021/06/07 16:21:12;;;;;;;891.60;829.05;;;18.70;99.90;;;;;;5131678;28;20271;-69
2021/06/07 16:23:47;;;;;;;905.55;842.03;;;18.70;99.90;;;;;;5131391;28;20202;-69
2021/06/07 16:26:13;;;;;;;935.03;869.05;;;18.70;99.90;;;;;;5131371;28;20170;-69
2021/06/07 16:28:39;;;;;;;976.70;905.00;;;18.80;99.90;;;;;;5131106;28;20512;-69
2021/06/07 16:31:05;;;;;;;948.58;881.80;;;18.80;99.90;;;;;;5131156;27;20170;-69
2021/06/07 16:33:31;;;;;;;946.58;880.13;;;18.80;99.90;;;;;;5131146;28;20177;-69
2021/06/07 16:35:57;;;;;;;980.63;909.75;;;18.80;99.90;;;;;;5130998;28;20651;-69
2021/06/07 16:38:23;;;;;;;958.22;890.45;;;18.80;99.90;;;;;;5130933;28;20177;-69
2021/06/07 16:40:48;;;;;;;831.70;778.05;;;18.80;99.90;;;;;;5131015;27;20623;-69
2021/06/07 16:43:15;;;;;;;875.15;817.00;;;18.80;99.90;;;;;;5130773;28;20196;-69
2021/06/07 16:45:42;;;;;;;943.70;878.08;;;18.80;99.90;;;;;;5130920;28;20181;-69
2021/06/07 16:48:08;;;;;;;865.45;808.78;;;18.80;99.90;;;;;;5130923;28;20619;-69
2021/06/07 16:50:35;;;;;;;907.47;846.63;;;18.80;99.90;;;;;;5130888;27;20267;-69
2021/06/07 16:53:00;;;;;;;941.30;876.72;;;18.80;99.90;;;;;;5130805;28;20654;-69
2021/06/07 16:55:27;;;;;;;859.78;803.75;;;18.80;99.90;;;;;;5130765;27;20170;-69
2021/06/07 16:57:53;;;;;;;823.95;771.53;;;18.80;99.90;;;;;;5129311;28;20181;-69
2021/06/07 17:00:23;;;;;;;870.60;813.22;;;18.70;99.90;;;;;;5130703;28;20193;-69
2021/06/07 17:02:49;;;;;;;897.40;837.35;;;18.70;99.90;;;;;;5130400;27;20214;-69
2021/06/07 17:05:15;;;;;;;864.50;808.75;;;18.70;99.90;;;;;;5130554;28;20180;-69
2021/06/07 17:07:40;;;;;;;886.75;828.33;;;18.60;99.90;;;;;;5129261;28;20215;-69
2021/06/07 17:10:07;;;;;;;909.25;848.00;;;18.60;99.90;;;;;;5130429;27;20553;-69
2021/06/07 17:13:10;;;;;;;867.17;809.90;;;18.50;99.90;;;;;;5130322;28;20184;-69
2021/06/07 17:15:25;;;;;;;890.60;829.90;;;18.50;99.90;;;;;;5113867;28;20668;-69
2021/06/07 17:17:57;;;;;;;897.65;836.55;;;18.40;99.90;;;;;;5115331;28;20178;-69
2021/06/07 17:20:23;;;;;;;857.83;800.85;;;18.40;99.90;;;;;;5116589;28;20219;-69
2021/06/07 17:22:49;;;;;;;856.50;799.78;;;18.30;99.90;;;;;;5115117;28;20677;-69
2021/06/07 17:25:15;;;;;;;813.17;760.45;;;18.30;99.90;;;;;;5116447;28;20245;-69
2021/06/07 17:52:47;;;;;;;588.65;555.05;;;17.90;99.90;;;;;;5147554;27;20520;-68
2021/06/07 17:55:14;;;;;;;702.55;659.67;;;17.90;99.90;;;;;;5130197;28;20192;-68
2021/06/07 17:57:40;;;;;;;743.45;697.28;;;17.90;99.90;;;;;;5130378;28;20700;-68
2021/06/07 18:00:08;;;;;;;822.00;769.03;;;17.90;99.90;;;;;;5130847;28;20177;-69
2021/06/07 18:02:34;;;;;;;809.42;757.50;;;17.90;99.90;;;;;;5131441;27;20174;-68
2021/06/07 18:05:00;;;;;;;843.28;787.47;;;17.90;99.90;;;;;;5131475;27;20527;-68
2021/06/07 19:01:53;;;;;;;607.75;572.92;;;20.50;99.90;;;;;;5147475;27;20539;-68
2021/06/07 19:04:19;;;;;;;672.60;631.95;;;18.80;99.90;;;;;;5130492;28;20639;-68
2021/06/07 19:06:44;;;;;;;616.58;580.15;;;19.20;99.90;;;;;;5131672;28;20166;-68
2021/06/07 19:09:10;;;;;;;682.40;640.13;;;19.50;99.90;;;;;;5131556;27;20166;-68
2021/06/07 19:11:38;;;;;;;746.03;698.70;;;19.70;99.90;;;;;;5131620;28;20242;-68
